createdAt,value
2019-01-15T00:00:01.625Z,4.23
2019-01-15T00:02:33.577Z,5.20
2019-01-15T00:05:04.832Z,5.40
2019-01-15T00:07:35.186Z,5.90
2019-01-15T00:10:07.206Z,5.90
2019-01-15T00:12:37.575Z,7.30
2019-01-15T00:15:08.098Z,6.70
2019-01-15T00:17:38.470Z,6.30
2019-01-15T00:20:09.062Z,6.00
2019-01-15T00:22:39.447Z,6.80
2019-01-15T00:25:14.082Z,6.27
2019-01-15T00:27:44.456Z,6.17
2019-01-15T00:30:16.453Z,6.23
2019-01-15T00:32:46.842Z,7.00
2019-01-15T00:35:17.183Z,6.10
2019-01-15T00:37:47.562Z,6.70
2019-01-15T00:40:18.683Z,6.77
2019-01-15T00:42:49.047Z,7.10
2019-01-15T00:45:19.380Z,7.13
2019-01-15T00:47:49.846Z,7.60
2019-01-15T00:50:20.207Z,7.87
2019-01-15T00:52:50.600Z,7.87
2019-01-15T00:55:20.979Z,7.87
2019-01-15T00:57:51.367Z,8.20
2019-01-15T01:00:23.106Z,7.83
2019-01-15T01:02:53.564Z,8.60
2019-01-15T01:05:23.960Z,9.20
2019-01-15T01:07:54.299Z,8.93
2019-01-15T01:10:24.650Z,9.10
2019-01-15T01:12:55.079Z,9.00
2019-01-15T01:15:25.427Z,9.70
2019-01-15T01:17:55.835Z,9.63
2019-01-15T01:20:26.194Z,9.10
2019-01-15T01:22:56.566Z,9.90
2019-01-15T01:25:26.942Z,8.80
2019-01-15T01:27:57.362Z,9.17
2019-01-15T01:30:46.772Z,8.50
2019-01-15T01:33:17.173Z,8.50
2019-01-15T01:35:47.577Z,8.63
2019-01-15T01:38:17.936Z,8.27
2019-01-15T01:40:48.286Z,8.80
2019-01-15T01:43:18.647Z,8.40
2019-01-15T01:45:49.002Z,9.07
2019-01-15T01:48:19.391Z,8.20
2019-01-15T01:50:49.744Z,8.50
2019-01-15T01:53:20.109Z,8.30
2019-01-15T01:55:50.446Z,6.83
2019-01-15T01:58:20.841Z,7.27
2019-01-15T02:00:51.369Z,7.20
2019-01-15T02:03:21.784Z,7.23
2019-01-15T02:05:52.898Z,6.97
2019-01-15T02:08:23.312Z,7.37
2019-01-15T02:10:53.668Z,7.30
2019-01-15T02:13:24.068Z,7.43
2019-01-15T02:15:54.586Z,7.30
2019-01-15T02:18:25.274Z,7.23
2019-01-15T02:20:56.860Z,7.67
2019-01-15T02:23:27.288Z,7.60
2019-01-15T02:25:57.836Z,7.57
2019-01-15T02:28:28.275Z,7.87
2019-01-15T02:30:58.687Z,7.60
2019-01-15T02:33:29.167Z,7.30
2019-01-15T02:35:59.815Z,6.67
2019-01-15T02:38:31.230Z,7.23
2019-01-15T02:41:01.633Z,6.87
2019-01-15T02:43:32.092Z,6.90
2019-01-15T02:46:02.513Z,6.30
2019-01-15T02:48:32.938Z,6.83
2019-01-15T02:51:03.324Z,6.60
2019-01-15T02:53:33.779Z,6.58
2019-01-15T02:56:04.260Z,7.17
2019-01-15T02:58:34.653Z,6.90
2019-01-15T03:01:05.014Z,6.37
2019-01-15T03:03:35.423Z,6.60
2019-01-15T03:06:05.897Z,6.50
2019-01-15T03:08:36.233Z,6.70
2019-01-15T03:11:06.583Z,6.10
2019-01-15T03:13:36.907Z,6.90
2019-01-15T03:16:07.275Z,7.30
2019-01-15T03:18:37.601Z,6.80
2019-01-15T03:21:07.967Z,7.20
2019-01-15T03:23:38.282Z,6.87
2019-01-15T03:26:08.649Z,6.87
2019-01-15T03:28:38.985Z,7.13
2019-01-15T03:31:09.477Z,7.17
2019-01-15T03:33:39.909Z,7.33
2019-01-15T03:36:10.261Z,6.80
2019-01-15T03:38:40.575Z,8.10
2019-01-15T03:41:10.939Z,7.50
2019-01-15T03:43:41.268Z,7.23
2019-01-15T03:46:11.631Z,7.13
2019-01-15T03:48:42.928Z,7.60
2019-01-15T03:51:13.299Z,7.00
2019-01-15T03:53:43.659Z,6.60
2019-01-15T03:56:14.035Z,7.47
2019-01-15T03:58:44.421Z,6.97
2019-01-15T04:01:14.778Z,7.30
2019-01-15T04:03:45.107Z,7.20
2019-01-15T04:06:15.458Z,7.17
2019-01-15T04:08:45.761Z,7.30
2019-01-15T04:11:16.103Z,7.30
2019-01-15T04:13:46.459Z,7.10
2019-01-15T04:16:16.866Z,7.23
2019-01-15T04:18:47.200Z,6.83
2019-01-15T04:21:17.586Z,7.20
2019-01-15T04:24:07.033Z,7.20
2019-01-15T04:26:37.555Z,7.13
2019-01-15T04:29:07.953Z,7.27
2019-01-15T04:31:38.295Z,7.43
2019-01-15T04:34:08.665Z,7.10
2019-01-15T04:36:39.016Z,7.47
2019-01-15T04:39:09.803Z,7.53
2019-01-15T04:41:40.133Z,7.00
2019-01-15T04:44:10.504Z,6.90
2019-01-15T04:46:40.859Z,7.70
2019-01-15T04:49:11.242Z,7.90
2019-01-15T04:51:41.566Z,7.50
2019-01-15T04:54:11.925Z,7.33
2019-01-15T04:56:42.459Z,7.77
2019-01-15T04:59:12.825Z,7.73
2019-01-15T05:01:43.266Z,7.20
2019-01-15T05:04:13.700Z,8.13
2019-01-15T05:06:45.741Z,8.43
2019-01-15T05:09:16.175Z,8.30
2019-01-15T05:11:46.705Z,9.28
2019-01-15T05:14:17.095Z,8.87
2019-01-15T05:16:47.419Z,9.13
2019-01-15T05:19:17.826Z,9.33
2019-01-15T05:21:48.269Z,9.13
2019-01-15T05:24:18.832Z,9.80
2019-01-15T05:26:49.519Z,9.90
2019-01-15T05:29:20.053Z,9.70
2019-01-15T05:31:50.591Z,10.17
2019-01-15T05:34:21.120Z,10.90
2019-01-15T05:36:52.648Z,11.10
2019-01-15T05:39:23.107Z,11.47
2019-01-15T05:41:54.013Z,11.40
2019-01-15T05:44:24.566Z,11.80
2019-01-15T05:46:55.150Z,11.80
2019-01-15T05:49:25.709Z,12.00
2019-01-15T05:51:57.043Z,11.63
2019-01-15T05:54:27.747Z,10.80
2019-01-15T05:56:58.300Z,11.00
2019-01-15T05:59:28.821Z,10.77
2019-01-15T06:01:59.147Z,11.47
2019-01-15T06:04:29.546Z,11.80
2019-01-15T06:06:59.893Z,11.63
2019-01-15T06:09:30.244Z,11.63
2019-01-15T06:12:00.619Z,11.37
2019-01-15T06:14:31.220Z,11.28
2019-01-15T06:17:01.585Z,11.50
2019-01-15T06:19:32.047Z,15.00
2019-01-15T06:22:04.106Z,11.37
2019-01-15T06:24:34.460Z,9.90
2019-01-15T06:27:05.048Z,11.23
2019-01-15T06:29:35.409Z,11.20
2019-01-15T06:32:05.765Z,12.00
2019-01-15T06:34:36.215Z,10.97
2019-01-15T06:37:06.652Z,10.73
2019-01-15T06:39:37.055Z,10.23
2019-01-15T06:42:07.423Z,10.70
2019-01-15T06:44:37.801Z,10.67
2019-01-15T06:47:08.170Z,10.37
2019-01-15T06:49:38.529Z,10.57
2019-01-15T06:52:08.870Z,10.73
2019-01-15T06:54:39.246Z,11.27
2019-01-15T06:57:09.591Z,11.80
2019-01-15T06:59:39.977Z,10.77
2019-01-15T07:02:10.404Z,11.80
2019-01-15T07:04:44.057Z,12.33
2019-01-15T07:07:12.756Z,11.13
2019-01-15T07:09:43.167Z,11.43
2019-01-15T07:12:13.508Z,10.97
2019-01-15T07:14:43.874Z,10.80
2019-01-15T07:17:14.229Z,11.23
2019-01-15T07:19:44.626Z,10.90
2019-01-15T07:22:15.051Z,11.57
2019-01-15T07:24:45.421Z,10.77
2019-01-15T07:27:15.805Z,11.17
2019-01-15T07:29:46.161Z,10.17
2019-01-15T07:32:16.515Z,11.07
2019-01-15T07:34:46.880Z,11.17
2019-01-15T07:37:17.266Z,11.73
2019-01-15T07:39:47.626Z,12.50
2019-01-15T07:42:17.983Z,14.20
2019-01-15T07:44:48.350Z,14.17
2019-01-15T07:47:18.760Z,15.30
2019-01-15T07:49:50.178Z,12.50
2019-01-15T07:52:21.604Z,11.87
2019-01-15T07:54:52.066Z,10.83
2019-01-15T07:57:22.442Z,9.80
2019-01-15T07:59:52.816Z,9.43
2019-01-15T08:02:23.463Z,9.27
2019-01-15T08:04:53.867Z,9.30
2019-01-15T08:07:24.214Z,8.90
2019-01-15T08:09:54.575Z,8.83
2019-01-15T08:12:25.076Z,8.77
2019-01-15T08:14:55.529Z,8.30
2019-01-15T08:17:26.945Z,8.40
2019-01-15T08:19:57.319Z,9.40
2019-01-15T08:22:27.691Z,8.17
2019-01-15T08:24:58.118Z,8.40
2019-01-15T08:27:28.606Z,8.47
2019-01-15T08:29:58.990Z,8.30
2019-01-15T08:32:29.338Z,8.83
2019-01-15T08:34:59.720Z,8.28
2019-01-15T08:37:30.987Z,8.60
2019-01-15T08:40:01.410Z,8.20
2019-01-15T08:42:31.890Z,9.23
2019-01-15T08:45:02.557Z,8.60
2019-01-15T08:47:36.143Z,8.93
2019-01-15T08:50:08.773Z,8.13
2019-01-15T08:52:39.134Z,8.18
2019-01-15T08:55:09.580Z,8.87
2019-01-15T08:57:40.054Z,9.63
2019-01-15T09:00:11.959Z,8.77
2019-01-15T09:02:42.304Z,9.10
2019-01-15T09:05:12.757Z,9.00
2019-01-15T09:07:43.131Z,9.33
2019-01-15T09:10:14.605Z,9.03
2019-01-15T09:12:45.367Z,8.83
2019-01-15T09:15:16.873Z,9.20
2019-01-15T09:17:47.311Z,9.60
2019-01-15T09:20:19.096Z,8.90
2019-01-15T09:22:49.792Z,8.97
2019-01-15T09:25:20.170Z,8.10
2019-01-15T09:27:50.502Z,8.27
2019-01-15T09:30:22.054Z,8.57
2019-01-15T09:32:52.531Z,8.23
2019-01-15T09:35:22.892Z,9.07
2019-01-15T09:37:53.450Z,8.73
2019-01-15T09:40:24.728Z,8.67
2019-01-15T09:42:55.080Z,8.63
2019-01-15T09:45:25.813Z,9.07
2019-01-15T09:48:03.981Z,8.70
2019-01-15T09:50:34.350Z,8.67
2019-01-15T09:53:04.945Z,9.30
2019-01-15T09:55:35.667Z,8.70
2019-01-15T09:58:06.974Z,8.70
2019-01-15T10:00:37.348Z,8.60
2019-01-15T10:03:07.682Z,9.50
2019-01-15T10:05:38.074Z,8.67
2019-01-15T10:08:08.391Z,7.60
2019-01-15T10:10:38.765Z,8.13
2019-01-15T10:13:09.111Z,8.60
2019-01-15T10:15:39.535Z,7.87
2019-01-15T10:18:09.885Z,8.23
2019-01-15T10:20:40.193Z,8.67
2019-01-15T10:23:10.550Z,9.57
2019-01-15T10:25:42.527Z,9.00
2019-01-15T10:28:13.317Z,9.20
2019-01-15T10:31:41.101Z,8.93
2019-01-15T10:34:19.259Z,9.20
2019-01-15T10:36:47.946Z,8.83
2019-01-15T10:39:18.268Z,8.80
2019-01-15T10:41:48.606Z,8.53
2019-01-15T10:44:18.927Z,8.40
2019-01-15T10:46:49.265Z,8.37
2019-01-15T10:49:19.595Z,8.80
2019-01-15T10:51:49.952Z,8.67
2019-01-15T10:54:20.281Z,8.47
2019-01-15T10:56:51.157Z,8.70
2019-01-15T10:59:21.490Z,8.17
2019-01-15T11:01:52.080Z,8.63
2019-01-15T11:04:22.407Z,8.90
2019-01-15T11:06:52.899Z,8.37
2019-01-15T11:09:23.216Z,8.90
2019-01-15T11:11:53.684Z,8.37
2019-01-15T11:14:24.403Z,7.67
2019-01-15T11:16:54.986Z,8.33
2019-01-15T11:19:25.315Z,7.93
2019-01-15T11:21:55.722Z,8.40
2019-01-15T11:24:26.041Z,7.50
2019-01-15T11:26:56.357Z,7.83
2019-01-15T11:29:26.743Z,7.63
2019-01-15T11:31:57.239Z,7.90
2019-01-15T11:34:27.735Z,7.93
2019-01-15T11:36:58.116Z,7.27
2019-01-15T11:39:28.606Z,7.47
2019-01-15T11:41:59.001Z,6.83
2019-01-15T11:44:29.507Z,7.97
2019-01-15T11:46:59.835Z,7.23
2019-01-15T11:49:30.777Z,7.17
2019-01-15T11:52:02.218Z,7.30
2019-01-15T11:54:32.586Z,7.50
2019-01-15T11:57:02.940Z,8.50
2019-01-15T11:59:33.400Z,7.57
2019-01-15T12:02:13.467Z,7.07
2019-01-15T12:05:01.328Z,7.63
2019-01-15T12:07:49.396Z,7.07
2019-01-15T12:10:34.153Z,9.13
2019-01-15T12:13:23.396Z,10.53
2019-01-15T12:16:04.369Z,8.70
2019-01-15T12:19:08.726Z,7.47
2019-01-15T12:21:59.070Z,7.47
2019-01-15T12:24:47.316Z,7.10
2019-01-15T12:27:45.656Z,8.03
2019-01-15T12:30:41.710Z,8.83
2019-01-15T12:33:31.091Z,7.60
2019-01-15T12:36:17.146Z,8.03
2019-01-15T12:39:10.251Z,8.60
2019-01-15T12:42:14.952Z,7.80
2019-01-15T12:45:07.406Z,7.37
2019-01-15T12:48:15.130Z,7.80
2019-01-15T12:51:10.724Z,7.57
2019-01-15T12:54:12.267Z,7.10
2019-01-15T12:57:19.008Z,6.40
2019-01-15T13:00:04.854Z,6.43
2019-01-15T13:02:54.170Z,6.30
2019-01-15T13:05:43.552Z,6.10
2019-01-15T13:08:31.825Z,6.60
2019-01-15T13:11:27.188Z,5.63
2019-01-15T13:14:09.192Z,6.77
2019-01-15T13:16:57.138Z,6.37
2019-01-15T13:19:45.142Z,6.87
2019-01-15T13:22:29.929Z,6.30
2019-01-15T13:25:37.714Z,6.73
2019-01-15T13:28:28.216Z,7.00
2019-01-15T13:31:23.451Z,7.70
2019-01-15T13:34:04.696Z,6.73
2019-01-15T13:36:53.242Z,7.73
2019-01-15T13:39:45.318Z,8.00
2019-01-15T13:42:29.301Z,7.83
2019-01-15T13:45:18.684Z,8.97
2019-01-15T13:48:05.796Z,8.20
2019-01-15T13:51:07.208Z,8.67
2019-01-15T13:53:57.761Z,7.77
2019-01-15T13:56:50.106Z,8.63
2019-01-15T13:59:57.590Z,8.00
2019-01-15T14:03:01.969Z,7.45
2019-01-15T14:05:39.881Z,7.27
2019-01-15T14:08:38.462Z,6.77
2019-01-15T14:11:36.987Z,7.30
2019-01-15T14:14:38.263Z,6.97
2019-01-15T14:17:24.703Z,7.67
2019-01-15T14:20:20.157Z,6.73
2019-01-15T14:23:29.301Z,6.50
2019-01-15T14:26:08.119Z,6.60
2019-01-15T14:29:15.580Z,6.85
2019-01-15T14:32:04.036Z,6.10
2019-01-15T14:34:59.528Z,6.20
2019-01-15T14:37:58.454Z,7.10
2019-01-15T14:40:53.938Z,6.70
2019-01-15T14:43:42.271Z,7.30
2019-01-15T14:46:34.671Z,6.40
2019-01-15T14:49:22.375Z,7.30
2019-01-15T14:52:11.627Z,7.73
2019-01-15T14:55:10.064Z,7.17
2019-01-15T14:58:17.565Z,6.90
2019-01-15T15:01:19.007Z,6.63
2019-01-15T15:04:23.585Z,9.40
2019-01-15T15:07:12.970Z,10.10
2019-01-15T15:10:01.138Z,8.37
2019-01-15T15:12:49.011Z,9.57
2019-01-15T15:15:44.449Z,8.80
2019-01-15T15:18:32.932Z,8.73
2019-01-15T15:21:26.015Z,7.83
2019-01-15T15:24:18.074Z,8.20
2019-01-15T15:27:06.873Z,8.20
2019-01-15T15:29:56.171Z,7.90
2019-01-15T15:32:51.556Z,7.97
2019-01-15T15:35:59.063Z,8.93
2019-01-15T15:38:48.434Z,8.63
2019-01-15T15:41:36.347Z,8.67
2019-01-15T15:44:17.863Z,8.73
2019-01-15T15:47:10.433Z,9.07
2019-01-15T15:49:54.119Z,9.13
2019-01-15T15:52:43.475Z,8.67
2019-01-15T15:55:25.635Z,8.97
2019-01-15T15:58:27.390Z,9.47
2019-01-15T16:01:15.724Z,9.40
2019-01-15T16:04:03.827Z,10.33
2019-01-15T16:06:56.176Z,11.10
2019-01-15T16:10:03.730Z,11.07
2019-01-15T16:12:52.025Z,12.00
2019-01-15T16:15:40.818Z,12.67
2019-01-15T16:18:35.175Z,13.63
2019-01-15T16:21:23.154Z,16.10
2019-01-15T16:24:18.591Z,13.10
2019-01-15T16:27:07.698Z,11.87
2019-01-15T16:30:04.710Z,10.43
2019-01-15T16:33:03.441Z,10.00
2019-01-15T16:35:58.923Z,10.90
2019-01-15T16:38:49.518Z,13.00
2019-01-15T16:41:35.703Z,11.07
2019-01-15T16:44:21.634Z,11.40
2019-01-15T16:47:12.043Z,9.67
2019-01-15T16:50:13.363Z,9.13
2019-01-15T16:53:05.734Z,9.10
2019-01-15T16:55:57.307Z,8.67
2019-01-15T16:58:40.612Z,9.43
2019-01-15T17:01:28.791Z,9.00
2019-01-15T17:04:27.090Z,8.47
2019-01-15T17:07:15.070Z,9.40
2019-01-15T17:10:03.218Z,9.15
2019-01-15T17:12:51.217Z,10.63
2019-01-15T17:15:49.417Z,11.93
2019-01-15T17:18:35.119Z,11.77
2019-01-15T17:21:24.424Z,9.87
2019-01-15T17:24:27.099Z,9.80
2019-01-15T17:27:15.107Z,9.60
2019-01-15T17:30:01.530Z,10.55
2019-01-15T17:32:49.718Z,8.53
2019-01-15T17:35:45.390Z,11.73
2019-01-15T17:38:33.668Z,12.20
2019-01-15T17:41:32.083Z,9.70
2019-01-15T17:44:20.593Z,9.47
2019-01-15T17:47:22.485Z,9.80
2019-01-15T17:50:17.413Z,7.63
2019-01-15T17:53:09.971Z,7.77
2019-01-15T17:55:59.287Z,6.80
2019-01-15T17:58:47.371Z,8.67
2019-01-15T18:01:32.638Z,8.53
2019-01-15T18:04:23.217Z,8.43
2019-01-15T18:07:16.454Z,7.53
2019-01-15T18:10:04.733Z,8.07
2019-01-15T18:12:56.888Z,7.40
2019-01-15T18:15:55.305Z,7.13
2019-01-15T18:18:44.638Z,6.10
2019-01-15T18:21:41.609Z,7.50
2019-01-15T18:24:49.676Z,7.57
2019-01-15T18:27:39.379Z,7.97
2019-01-15T18:30:30.902Z,8.03
2019-01-15T18:33:23.535Z,7.73
2019-01-15T18:36:13.273Z,6.73
2019-01-15T18:39:18.147Z,4.80
2019-01-15T18:42:13.633Z,4.47
2019-01-15T18:45:05.668Z,4.60
2019-01-15T18:48:10.122Z,3.70
2019-01-15T18:51:00.415Z,4.10
2019-01-15T18:53:45.019Z,4.40
2019-01-15T18:56:37.202Z,4.50
2019-01-15T18:59:34.384Z,4.70
2019-01-15T19:02:24.545Z,4.57
2019-01-15T19:05:04.104Z,4.37
2019-01-15T19:07:56.635Z,4.83
2019-01-15T19:10:55.120Z,4.47
2019-01-15T19:13:50.287Z,4.40
2019-01-15T19:16:34.912Z,4.80
2019-01-15T19:19:20.116Z,4.70
2019-01-15T19:22:09.394Z,4.30
2019-01-15T19:24:57.622Z,4.43
2019-01-15T19:27:37.818Z,4.70
2019-01-15T19:30:19.454Z,4.70
2019-01-15T19:33:17.921Z,5.30
2019-01-15T19:36:06.119Z,4.80
2019-01-15T19:38:58.538Z,4.10
2019-01-15T19:41:50.720Z,4.23
2019-01-15T19:44:40.085Z,5.00
2019-01-15T19:47:28.390Z,3.90
2019-01-15T19:50:17.550Z,4.30
2019-01-15T19:53:09.679Z,5.27
2019-01-15T19:55:57.624Z,5.00
2019-01-15T19:58:54.465Z,5.47
2019-01-15T20:01:59.314Z,5.83
2019-01-15T20:04:50.015Z,5.90
2019-01-15T20:07:49.939Z,5.37
2019-01-15T20:10:47.431Z,5.17
2019-01-15T20:13:46.641Z,6.00
2019-01-15T20:16:39.177Z,4.47
2019-01-15T20:19:27.608Z,5.28
2019-01-15T20:22:15.589Z,4.00
2019-01-15T20:25:04.981Z,4.63
2019-01-15T20:27:52.849Z,4.78
2019-01-15T20:30:41.010Z,4.80
2019-01-15T20:33:29.182Z,4.77
2019-01-15T20:36:17.390Z,4.53
2019-01-15T20:39:03.173Z,4.47
2019-01-15T20:42:06.378Z,3.83
2019-01-15T20:45:04.831Z,4.20
2019-01-15T20:47:54.337Z,4.30
2019-01-15T20:50:42.718Z,3.80
2019-01-15T20:53:37.173Z,4.40
2019-01-15T20:56:26.528Z,4.90
2019-01-15T20:59:06.241Z,5.73
2019-01-15T21:01:58.777Z,6.20
2019-01-15T21:04:58.760Z,6.07
2019-01-15T21:07:46.713Z,7.10
2019-01-15T21:10:39.248Z,7.10
2019-01-15T21:13:31.331Z,8.23
2019-01-15T21:16:14.882Z,8.47
2019-01-15T21:19:10.439Z,8.23
2019-01-15T21:22:09.167Z,9.17
2019-01-15T21:25:07.682Z,9.20
2019-01-15T21:27:58.086Z,9.80
2019-01-15T21:30:50.599Z,11.67
2019-01-15T21:33:44.176Z,9.57
2019-01-15T21:36:45.874Z,8.63
2019-01-15T21:39:26.703Z,8.93
2019-01-15T21:42:15.077Z,8.87
2019-01-15T21:45:04.375Z,9.87
2019-01-15T21:47:53.761Z,11.60
2019-01-15T21:51:01.465Z,11.40
2019-01-15T21:53:49.552Z,11.30
2019-01-15T21:56:47.880Z,9.80
2019-01-15T21:59:29.814Z,9.10
2019-01-15T22:02:25.223Z,10.23
2019-01-15T22:05:07.250Z,11.63
2019-01-15T22:08:03.052Z,11.00
2019-01-15T22:11:04.642Z,10.60
2019-01-15T22:13:53.946Z,10.43
2019-01-15T22:16:49.110Z,10.87
2019-01-15T22:19:35.986Z,10.93
2019-01-15T22:22:23.995Z,10.40
2019-01-15T22:25:31.682Z,11.10
2019-01-15T22:28:19.967Z,10.10
2019-01-15T22:31:09.285Z,11.50
2019-01-15T22:33:47.537Z,11.23
2019-01-15T22:36:36.858Z,11.40
2019-01-15T22:39:38.222Z,13.03
2019-01-15T22:42:27.563Z,12.63
2019-01-15T22:45:27.911Z,12.47
2019-01-15T22:48:26.320Z,12.47
2019-01-15T22:51:14.018Z,13.83
2019-01-15T22:54:09.119Z,13.87
2019-01-15T22:57:07.493Z,14.67
2019-01-15T22:59:55.657Z,13.47
2019-01-15T23:03:00.123Z,13.20
2019-01-15T23:05:56.422Z,12.53
2019-01-15T23:08:48.206Z,12.67
2019-01-15T23:11:40.783Z,12.70
2019-01-15T23:14:27.824Z,12.37
2019-01-15T23:17:18.289Z,11.73
2019-01-15T23:20:06.109Z,12.30
2019-01-15T23:23:01.301Z,10.57
2019-01-15T23:25:56.560Z,11.77
2019-01-15T23:28:44.823Z,10.77
2019-01-15T23:31:46.462Z,10.80
2019-01-15T23:34:24.579Z,10.53
2019-01-15T23:37:15.867Z,10.77
2019-01-15T23:40:04.007Z,12.10
2019-01-15T23:43:12.029Z,12.10
2019-01-15T23:46:16.711Z,12.47
2019-01-15T23:49:06.236Z,11.48
2019-01-15T23:51:58.702Z,12.68
2019-01-15T23:54:51.037Z,12.47
2019-01-15T23:57:55.262Z,13.33
